Time;durP1;ratioP1;P1;durP2;ratioP2;P2;SDS_P1;SDS_P2;PMS_P1;PMS_P2;Temp;Humidity;BMP_temperature;BMP_pressure;BME280_temperature;BME280_humidity;BME280_pressure;Samples;Min_cycle;Max_cycle;Signal;HPM_P1;HPM_P2
2022/01/12 00:00:27;;;;;;;29.6;16.6;;;;;;;-1.01;95.74316;96751.81;;;;
2022/01/12 00:01:29;;;;;;;29.6;16.6;;;;;;;-1.01;95.74316;96751.81;;;;
2022/01/12 00:02:29;;;;;;;26.1;15.25;;;;;;;-1.02;95.71777;96762.52;;;;
2022/01/12 00:03:30;;;;;;;26.1;15.25;;;;;;;-1.02;95.71777;96762.52;;;;
2022/01/12 00:04:30;;;;;;;26.1;15.25;;;;;;;-1.02;95.71777;96762.52;;;;
2022/01/12 00:05:31;;;;;;;26.1;15.25;;;;;;;-1.02;95.71777;96762.52;;;;
2022/01/12 00:06:32;;;;;;;26.1;15.25;;;;;;;-1.02;95.71777;96762.52;;;;
2022/01/12 00:07:32;;;;;;;26.1;15.25;;;;;;;-1.02;95.71777;96762.52;;;;
2022/01/12 00:08:33;;;;;;;26.1;15.25;;;;;;;-1.02;95.71777;96762.52;;;;
2022/01/12 00:09:33;;;;;;;26.1;15.25;;;;;;;-1.02;95.71777;96762.52;;;;
2022/01/12 00:10:34;;;;;;;26.1;15.25;;;;;;;-1.02;95.71777;96762.52;;;;
2022/01/12 00:11:35;;;;;;;26.1;15.25;;;;;;;-1.02;95.71777;96762.52;;;;
2022/01/12 00:12:36;;;;;;;26.1;15.25;;;;;;;-1.02;95.71777;96762.52;;;;
2022/01/12 00:13:37;;;;;;;26.1;15.25;;;;;;;-1.02;95.71777;96762.52;;;;
2022/01/12 00:14:37;;;;;;;26.1;15.25;;;;;;;-1.02;95.71777;96762.52;;;;
2022/01/12 00:15:38;;;;;;;26.1;15.25;;;;;;;-1.02;95.71777;96762.52;;;;
2022/01/12 00:16:40;;;;;;;26.1;15.25;;;;;;;-1.02;95.71777;96762.52;;;;
2022/01/12 00:17:41;;;;;;;26.1;15.25;;;;;;;-1.02;95.71777;96762.52;;;;
2022/01/12 00:18:44;;;;;;;26.1;15.25;;;;;;;-1.02;95.71777;96762.52;;;;
2022/01/12 00:19:44;;;;;;;26.1;15.25;;;;;;;-1.02;95.71777;96762.52;;;;
2022/01/12 00:20:45;;;;;;;26.1;15.25;;;;;;;-1.02;95.71777;96762.52;;;;
2022/01/12 00:21:45;;;;;;;26.1;15.25;;;;;;;-1.02;95.71777;96762.52;;;;
2022/01/12 00:22:46;;;;;;;26.1;15.25;;;;;;;-1.02;95.71777;96762.52;;;;
2022/01/12 00:23:46;;;;;;;29.95;16.7;;;;;;;-1.19;96.375;96778.53;;;;
2022/01/12 00:25:10;;;;;;;29.95;16.7;;;;;;;-1.19;96.375;96778.53;;;;
2022/01/12 00:26:23;;;;;;;29.95;16.7;;;;;;;-1.19;96.375;96778.53;;;;
2022/01/12 00:33:09;;;;;;;29.95;16.7;;;;;;;-1.19;96.375;96778.53;;;;
2022/01/12 00:34:11;;;;;;;29.6;16.7;;;;;;;-1.03;96.5332;96783.37;;;;
2022/01/12 00:35:11;;;;;;;29.6;16.7;;;;;;;-1.03;96.5332;96783.37;;;;
2022/01/12 00:36:12;;;;;;;29.6;16.7;;;;;;;-1.03;96.5332;96783.37;;;;
2022/01/12 00:37:12;;;;;;;29.6;16.7;;;;;;;-1.03;96.5332;96783.37;;;;
2022/01/12 00:38:12;;;;;;;29.6;16.7;;;;;;;-1.03;96.5332;96783.37;;;;
2022/01/12 00:39:15;;;;;;;29.6;16.7;;;;;;;-1.03;96.5332;96783.37;;;;
2022/01/12 00:40:16;;;;;;;29.6;16.7;;;;;;;-1.03;96.5332;96783.37;;;;
2022/01/12 00:41:17;;;;;;;29.6;16.7;;;;;;;-1.03;96.5332;96783.37;;;;
2022/01/12 00:42:22;;;;;;;29.6;16.7;;;;;;;-1.03;96.5332;96783.37;;;;
2022/01/12 00:43:25;;;;;;;29.6;16.7;;;;;;;-1.03;96.5332;96783.37;;;;
2022/01/12 00:44:33;;;;;;;29.6;16.7;;;;;;;-1.03;96.5332;96783.37;;;;
2022/01/12 00:45:33;;;;;;;29.6;16.7;;;;;;;-1.03;96.5332;96783.37;;;;
2022/01/12 00:46:35;;;;;;;29.6;16.7;;;;;;;-1.03;96.5332;96783.37;;;;
2022/01/12 00:47:38;;;;;;;29.6;16.7;;;;;;;-1.03;96.5332;96783.37;;;;
2022/01/12 00:48:38;;;;;;;29.6;16.7;;;;;;;-1.03;96.5332;96783.37;;;;
2022/01/12 00:49:38;;;;;;;29.6;16.7;;;;;;;-1.03;96.5332;96783.37;;;;
2022/01/12 00:50:39;;;;;;;29.6;16.7;;;;;;;-1.03;96.5332;96783.37;;;;
2022/01/12 00:51:40;;;;;;;29.6;16.7;;;;;;;-1.03;96.5332;96783.37;;;;
2022/01/12 00:52:40;;;;;;;29.6;16.7;;;;;;;-1.03;96.5332;96783.37;;;;
2022/01/12 00:53:41;;;;;;;29.6;16.7;;;;;;;-1.03;96.5332;96783.37;;;;
2022/01/12 00:54:41;;;;;;;29.6;16.7;;;;;;;-1.03;96.5332;96783.37;;;;
2022/01/12 00:55:42;;;;;;;28;16.55;;;;;;;-0.87;96.08496;96770.94;;;;
2022/01/12 00:56:43;;;;;;;28;16.55;;;;;;;-0.87;96.08496;96770.94;;;;
2022/01/12 00:57:43;;;;;;;28;16.55;;;;;;;-0.87;96.08496;96770.94;;;;
2022/01/12 00:58:44;;;;;;;28;16.55;;;;;;;-0.87;96.08496;96770.94;;;;
2022/01/12 00:59:45;;;;;;;28;16.55;;;;;;;-0.87;96.08496;96770.94;;;;
2022/01/12 01:00:45;;;;;;;28;16.55;;;;;;;-0.87;96.08496;96770.94;;;;
2022/01/12 01:01:46;;;;;;;28;16.55;;;;;;;-0.87;96.08496;96770.94;;;;
2022/01/12 01:02:46;;;;;;;28;16.55;;;;;;;-0.87;96.08496;96770.94;;;;
2022/01/12 01:03:47;;;;;;;28;16.55;;;;;;;-0.87;96.08496;96770.94;;;;
2022/01/12 01:04:49;;;;;;;28;16.55;;;;;;;-0.87;96.08496;96770.94;;;;
2022/01/12 01:05:49;;;;;;;28;16.55;;;;;;;-0.87;96.08496;96770.94;;;;
2022/01/12 01:06:50;;;;;;;29.8;16.85;;;;;;;-1.02;95.97656;96772.22;;;;
2022/01/12 01:07:52;;;;;;;29.8;16.85;;;;;;;-1.02;95.97656;96772.22;;;;
2022/01/12 01:08:53;;;;;;;29.8;16.85;;;;;;;-1.02;95.97656;96772.22;;;;
2022/01/12 01:10:01;;;;;;;29.8;16.85;;;;;;;-1.02;95.97656;96772.22;;;;
2022/01/12 01:11:02;;;;;;;29.8;16.85;;;;;;;-1.02;95.97656;96772.22;;;;
2022/01/12 01:12:03;;;;;;;29.8;16.85;;;;;;;-1.02;95.97656;96772.22;;;;
2022/01/12 01:13:05;;;;;;;29.8;16.85;;;;;;;-1.02;95.97656;96772.22;;;;
2022/01/12 01:14:14;;;;;;;29.8;16.85;;;;;;;-1.02;95.97656;96772.22;;;;
2022/01/12 01:15:18;;;;;;;29.8;16.85;;;;;;;-1.02;95.97656;96772.22;;;;
2022/01/12 01:16:25;;;;;;;29.8;16.85;;;;;;;-1.02;95.97656;96772.22;;;;
2022/01/12 01:27:52;;;;;;;29.05;16.55;;;;;;;-1.83;96.72559;96777.23;;;;
2022/01/12 01:28:53;;;;;;;29.05;16.55;;;;;;;-1.83;96.72559;96777.23;;;;
2022/01/12 01:29:54;;;;;;;29.05;16.55;;;;;;;-1.83;96.72559;96777.23;;;;
2022/01/12 01:30:55;;;;;;;29.05;16.55;;;;;;;-1.83;96.72559;96777.23;;;;
2022/01/12 01:31:55;;;;;;;29.05;16.55;;;;;;;-1.83;96.72559;96777.23;;;;
2022/01/12 01:33:03;;;;;;;29.05;16.55;;;;;;;-1.83;96.72559;96777.23;;;;
2022/01/12 01:34:08;;;;;;;29.05;16.55;;;;;;;-1.83;96.72559;96777.23;;;;
2022/01/12 01:35:09;;;;;;;29.05;16.55;;;;;;;-1.83;96.72559;96777.23;;;;
2022/01/12 01:36:11;;;;;;;29.05;16.55;;;;;;;-1.83;96.72559;96777.23;;;;
2022/01/12 01:37:11;;;;;;;29.05;16.55;;;;;;;-1.83;96.72559;96777.23;;;;
2022/01/12 01:38:12;;;;;;;29.75;16.55;;;;;;;-2.21;96.99902;96762.29;;;;
2022/01/12 01:39:13;;;;;;;29.75;16.55;;;;;;;-2.21;96.99902;96762.29;;;;
2022/01/12 01:40:16;;;;;;;29.75;16.55;;;;;;;-2.21;96.99902;96762.29;;;;
2022/01/12 01:41:16;;;;;;;29.75;16.55;;;;;;;-2.21;96.99902;96762.29;;;;
2022/01/12 01:42:20;;;;;;;29.75;16.55;;;;;;;-2.21;96.99902;96762.29;;;;
2022/01/12 01:43:36;;;;;;;29.75;16.55;;;;;;;-2.21;96.99902;96762.29;;;;
2022/01/12 01:55:00;;;;;;;32.59999;18.25;;;;;;;-2.55;97.29297;96761.87;;;;
2022/01/12 01:56:04;;;;;;;32.59999;18.25;;;;;;;-2.55;97.29297;96761.87;;;;
2022/01/12 01:57:06;;;;;;;32.59999;18.25;;;;;;;-2.55;97.29297;96761.87;;;;
2022/01/12 01:58:06;;;;;;;32.59999;18.25;;;;;;;-2.55;97.29297;96761.87;;;;
2022/01/12 01:59:07;;;;;;;32.59999;18.25;;;;;;;-2.55;97.29297;96761.87;;;;
2022/01/12 02:00:08;;;;;;;33.45;17.8;;;;;;;-2.85;97.58398;96750.2;;;;
2022/01/12 02:01:12;;;;;;;33.45;17.8;;;;;;;-2.85;97.58398;96750.2;;;;
2022/01/12 02:02:13;;;;;;;33.45;17.8;;;;;;;-2.85;97.58398;96750.2;;;;
2022/01/12 02:03:14;;;;;;;33.45;17.8;;;;;;;-2.85;97.58398;96750.2;;;;
2022/01/12 02:04:16;;;;;;;33.45;17.8;;;;;;;-2.85;97.58398;96750.2;;;;
2022/01/12 02:05:16;;;;;;;33.45;17.8;;;;;;;-2.85;97.58398;96750.2;;;;
2022/01/12 02:06:17;;;;;;;33.45;17.8;;;;;;;-2.85;97.58398;96750.2;;;;
2022/01/12 02:07:17;;;;;;;33.45;17.8;;;;;;;-2.85;97.58398;96750.2;;;;
2022/01/12 02:08:18;;;;;;;33.45;17.8;;;;;;;-2.85;97.58398;96750.2;;;;
2022/01/12 02:09:18;;;;;;;33.45;17.8;;;;;;;-2.85;97.58398;96750.2;;;;
2022/01/12 02:10:19;;;;;;;34.55;18.2;;;;;;;-3.1;97.8877;96770.2;;;;
2022/01/12 02:11:20;;;;;;;34.55;18.2;;;;;;;-3.1;97.8877;96770.2;;;;
2022/01/12 02:12:24;;;;;;;34.55;18.2;;;;;;;-3.1;97.8877;96770.2;;;;
2022/01/12 02:13:26;;;;;;;34.55;18.2;;;;;;;-3.1;97.8877;96770.2;;;;
2022/01/12 02:14:26;;;;;;;34.55;18.2;;;;;;;-3.1;97.8877;96770.2;;;;
2022/01/12 02:15:28;;;;;;;34.55;18.2;;;;;;;-3.1;97.8877;96770.2;;;;
2022/01/12 02:16:35;;;;;;;34.55;18.2;;;;;;;-3.1;97.8877;96770.2;;;;
2022/01/12 02:17:41;;;;;;;34.55;18.2;;;;;;;-3.1;97.8877;96770.2;;;;
2022/01/12 02:19:07;;;;;;;34.55;18.2;;;;;;;-3.1;97.8877;96770.2;;;;
2022/01/12 02:20:26;;;;;;;34.55;18.2;;;;;;;-3.1;97.8877;96770.2;;;;
2022/01/12 02:37:16;;;;;;;35.65;18.9;;;;;;;-3.52;97.90332;96765.03;;;;
2022/01/12 02:50:35;;;;;;;37.45;18.7;;;;;;;-3.67;97.94043;96789.51;;;;
2022/01/12 02:53:38;;;;;;;37.45;18.7;;;;;;;-3.67;97.94043;96789.51;;;;
2022/01/12 02:54:39;;;;;;;42.55;25.05;;;;;;;-3.8;98.0332;96782.97;;;;
2022/01/12 02:55:40;;;;;;;42.55;25.05;;;;;;;-3.8;98.0332;96782.97;;;;
2022/01/12 02:56:40;;;;;;;42.55;25.05;;;;;;;-3.8;98.0332;96782.97;;;;
2022/01/12 02:57:41;;;;;;;42.55;25.05;;;;;;;-3.8;98.0332;96782.97;;;;
2022/01/12 02:58:41;;;;;;;42.55;25.05;;;;;;;-3.8;98.0332;96782.97;;;;
2022/01/12 03:00:00;;;;;;;42.55;25.05;;;;;;;-3.8;98.0332;96782.97;;;;
2022/01/12 03:02:20;;;;;;;42.55;25.05;;;;;;;-3.8;98.0332;96782.97;;;;
2022/01/12 03:03:24;;;;;;;42.55;25.05;;;;;;;-3.8;98.0332;96782.97;;;;
2022/01/12 03:04:24;;;;;;;45.6;21.7;;;;;;;-3.69;98.53125;96795.37;;;;
2022/01/12 03:05:35;;;;;;;45.6;21.7;;;;;;;-3.69;98.53125;96795.37;;;;
2022/01/12 03:06:38;;;;;;;45.6;21.7;;;;;;;-3.69;98.53125;96795.37;;;;
2022/01/12 03:07:40;;;;;;;45.6;21.7;;;;;;;-3.69;98.53125;96795.37;;;;
2022/01/12 03:08:40;;;;;;;45.6;21.7;;;;;;;-3.69;98.53125;96795.37;;;;
2022/01/12 03:09:41;;;;;;;45.6;21.7;;;;;;;-3.69;98.53125;96795.37;;;;
2022/01/12 03:10:41;;;;;;;45.6;21.7;;;;;;;-3.69;98.53125;96795.37;;;;
2022/01/12 03:11:42;;;;;;;45.6;21.7;;;;;;;-3.69;98.53125;96795.37;;;;
2022/01/12 03:12:42;;;;;;;45.6;21.7;;;;;;;-3.69;98.53125;96795.37;;;;
2022/01/12 03:13:44;;;;;;;45.6;21.7;;;;;;;-3.69;98.53125;96795.37;;;;
2022/01/12 03:14:46;;;;;;;48.8;23.65;;;;;;;-3.31;98.43652;96804.77;;;;
2022/01/12 03:15:48;;;;;;;48.8;23.65;;;;;;;-3.31;98.43652;96804.77;;;;
2022/01/12 03:16:49;;;;;;;48.8;23.65;;;;;;;-3.31;98.43652;96804.77;;;;
2022/01/12 03:17:49;;;;;;;48.8;23.65;;;;;;;-3.31;98.43652;96804.77;;;;
2022/01/12 03:18:49;;;;;;;48.8;23.65;;;;;;;-3.31;98.43652;96804.77;;;;
2022/01/12 03:19:52;;;;;;;48.8;23.65;;;;;;;-3.31;98.43652;96804.77;;;;
2022/01/12 03:20:52;;;;;;;48.8;23.65;;;;;;;-3.31;98.43652;96804.77;;;;
2022/01/12 03:21:53;;;;;;;48.8;23.65;;;;;;;-3.31;98.43652;96804.77;;;;
2022/01/12 03:22:53;;;;;;;48.8;23.65;;;;;;;-3.31;98.43652;96804.77;;;;
2022/01/12 03:23:54;;;;;;;48.8;23.65;;;;;;;-3.31;98.43652;96804.77;;;;
2022/01/12 03:24:55;;;;;;;51.25;25.25;;;;;;;-2.89;97.83301;96805.08;;;;
2022/01/12 03:25:56;;;;;;;51.25;25.25;;;;;;;-2.89;97.83301;96805.08;;;;
2022/01/12 03:26:57;;;;;;;51.25;25.25;;;;;;;-2.89;97.83301;96805.08;;;;
2022/01/12 03:28:00;;;;;;;51.25;25.25;;;;;;;-2.89;97.83301;96805.08;;;;
2022/01/12 03:29:01;;;;;;;51.25;25.25;;;;;;;-2.89;97.83301;96805.08;;;;
2022/01/12 03:30:05;;;;;;;51.25;25.25;;;;;;;-2.89;97.83301;96805.08;;;;
2022/01/12 03:31:09;;;;;;;51.25;25.25;;;;;;;-2.89;97.83301;96805.08;;;;
2022/01/12 03:32:12;;;;;;;51.25;25.25;;;;;;;-2.89;97.83301;96805.08;;;;
2022/01/12 03:33:19;;;;;;;51.25;25.25;;;;;;;-2.89;97.83301;96805.08;;;;
2022/01/12 03:34:25;;;;;;;51.25;25.25;;;;;;;-2.89;97.83301;96805.08;;;;
2022/01/12 03:35:46;;;;;;;51.25;25.25;;;;;;;-2.89;97.83301;96805.08;;;;
2022/01/12 03:37:05;;;;;;;42.6;22;;;;;;;-2.66;97.27734;96812.98;;;;
2022/01/12 03:38:19;;;;;;;42.6;22;;;;;;;-2.66;97.27734;96812.98;;;;
2022/01/12 03:39:20;;;;;;;42.6;22;;;;;;;-2.66;97.27734;96812.98;;;;
2022/01/12 03:40:21;;;;;;;42.6;22;;;;;;;-2.66;97.27734;96812.98;;;;
2022/01/12 03:41:22;;;;;;;42.6;22;;;;;;;-2.66;97.27734;96812.98;;;;
2022/01/12 03:42:23;;;;;;;42.6;22;;;;;;;-2.66;97.27734;96812.98;;;;
2022/01/12 03:43:24;;;;;;;42.6;22;;;;;;;-2.66;97.27734;96812.98;;;;
2022/01/12 03:44:24;;;;;;;42.6;22;;;;;;;-2.66;97.27734;96812.98;;;;
2022/01/12 03:45:25;;;;;;;42.6;22;;;;;;;-2.66;97.27734;96812.98;;;;
2022/01/12 03:46:25;;;;;;;42.95;22.05;;;;;;;-2.48;97.21484;96820;;;;
2022/01/12 03:47:30;;;;;;;42.95;22.05;;;;;;;-2.48;97.21484;96820;;;;
2022/01/12 03:48:30;;;;;;;42.95;22.05;;;;;;;-2.48;97.21484;96820;;;;
2022/01/12 03:49:31;;;;;;;42.95;22.05;;;;;;;-2.48;97.21484;96820;;;;
2022/01/12 03:50:32;;;;;;;42.95;22.05;;;;;;;-2.48;97.21484;96820;;;;
2022/01/12 03:51:32;;;;;;;42.95;22.05;;;;;;;-2.48;97.21484;96820;;;;
2022/01/12 03:52:33;;;;;;;42.95;22.05;;;;;;;-2.48;97.21484;96820;;;;
2022/01/12 03:53:33;;;;;;;42.95;22.05;;;;;;;-2.48;97.21484;96820;;;;
2022/01/12 03:54:34;;;;;;;42.95;22.05;;;;;;;-2.48;97.21484;96820;;;;
2022/01/12 03:55:35;;;;;;;42.95;22.05;;;;;;;-2.48;97.21484;96820;;;;
2022/01/12 03:56:35;;;;;;;42.95;22.05;;;;;;;-2.48;97.21484;96820;;;;
2022/01/12 03:57:36;;;;;;;46.45;22.7;;;;;;;-2.36;97.05957;96824.24;;;;
2022/01/12 03:58:37;;;;;;;46.45;22.7;;;;;;;-2.36;97.05957;96824.24;;;;
2022/01/12 03:59:37;;;;;;;46.45;22.7;;;;;;;-2.36;97.05957;96824.24;;;;
2022/01/12 04:00:38;;;;;;;46.45;22.7;;;;;;;-2.36;97.05957;96824.24;;;;
2022/01/12 04:01:38;;;;;;;46.45;22.7;;;;;;;-2.36;97.05957;96824.24;;;;
2022/01/12 04:02:40;;;;;;;46.45;22.7;;;;;;;-2.36;97.05957;96824.24;;;;
2022/01/12 04:03:44;;;;;;;46.45;22.7;;;;;;;-2.36;97.05957;96824.24;;;;
2022/01/12 04:05:07;;;;;;;46.45;22.7;;;;;;;-2.36;97.05957;96824.24;;;;
2022/01/12 04:11:22;;;;;;;48.15;24.3;;;;;;;-2.24;97.10547;96823.77;;;;
2022/01/12 04:12:25;;;;;;;48.15;24.3;;;;;;;-2.24;97.10547;96823.77;;;;
2022/01/12 04:13:27;;;;;;;48.15;24.3;;;;;;;-2.24;97.10547;96823.77;;;;
2022/01/12 04:14:29;;;;;;;48.15;24.3;;;;;;;-2.24;97.10547;96823.77;;;;
2022/01/12 04:15:29;;;;;;;48.15;24.3;;;;;;;-2.24;97.10547;96823.77;;;;
2022/01/12 04:16:30;;;;;;;48.15;24.3;;;;;;;-2.24;97.10547;96823.77;;;;
2022/01/12 04:17:31;;;;;;;48.15;24.3;;;;;;;-2.24;97.10547;96823.77;;;;
2022/01/12 04:18:31;;;;;;;47.2;23.75;;;;;;;-2.11;97.16699;96829.79;;;;
2022/01/12 04:19:34;;;;;;;47.2;23.75;;;;;;;-2.11;97.16699;96829.79;;;;
2022/01/12 04:20:34;;;;;;;47.2;23.75;;;;;;;-2.11;97.16699;96829.79;;;;
2022/01/12 04:21:42;;;;;;;47.2;23.75;;;;;;;-2.11;97.16699;96829.79;;;;
2022/01/12 04:23:47;;;;;;;47.2;23.75;;;;;;;-2.11;97.16699;96829.79;;;;
2022/01/12 04:24:48;;;;;;;47.2;23.75;;;;;;;-2.11;97.16699;96829.79;;;;
2022/01/12 04:25:48;;;;;;;47.2;23.75;;;;;;;-2.11;97.16699;96829.79;;;;
2022/01/12 04:26:51;;;;;;;47.2;23.75;;;;;;;-2.11;97.16699;96829.79;;;;
2022/01/12 04:27:52;;;;;;;47.2;23.75;;;;;;;-2.11;97.16699;96829.79;;;;
2022/01/12 04:28:52;;;;;;;48.5;23.2;;;;;;;-2.01;97.16992;96832.95;;;;
2022/01/12 04:29:53;;;;;;;48.5;23.2;;;;;;;-2.01;97.16992;96832.95;;;;
2022/01/12 04:30:54;;;;;;;48.5;23.2;;;;;;;-2.01;97.16992;96832.95;;;;
2022/01/12 04:31:56;;;;;;;48.5;23.2;;;;;;;-2.01;97.16992;96832.95;;;;
2022/01/12 04:32:56;;;;;;;48.5;23.2;;;;;;;-2.01;97.16992;96832.95;;;;
2022/01/12 04:33:57;;;;;;;48.5;23.2;;;;;;;-2.01;97.16992;96832.95;;;;
2022/01/12 04:34:58;;;;;;;48.5;23.2;;;;;;;-2.01;97.16992;96832.95;;;;
2022/01/12 04:35:59;;;;;;;48.5;23.2;;;;;;;-2.01;97.16992;96832.95;;;;
2022/01/12 04:36:59;;;;;;;48.5;23.2;;;;;;;-2.01;97.16992;96832.95;;;;
2022/01/12 04:38:00;;;;;;;48.5;23.2;;;;;;;-2.01;97.16992;96832.95;;;;
2022/01/12 04:39:01;;;;;;;48.5;23.2;;;;;;;-2.01;97.16992;96832.95;;;;
2022/01/12 04:40:03;;;;;;;52.55;23.95;;;;;;;-1.95;97.02832;96832;;;;
2022/01/12 04:41:05;;;;;;;52.55;23.95;;;;;;;-1.95;97.02832;96832;;;;
2022/01/12 04:42:07;;;;;;;52.55;23.95;;;;;;;-1.95;97.02832;96832;;;;
2022/01/12 04:43:09;;;;;;;52.55;23.95;;;;;;;-1.95;97.02832;96832;;;;
2022/01/12 04:44:12;;;;;;;52.55;23.95;;;;;;;-1.95;97.02832;96832;;;;
2022/01/12 04:45:19;;;;;;;52.55;23.95;;;;;;;-1.95;97.02832;96832;;;;
2022/01/12 04:46:26;;;;;;;52.55;23.95;;;;;;;-1.95;97.02832;96832;;;;
2022/01/12 04:47:40;;;;;;;52.55;23.95;;;;;;;-1.95;97.02832;96832;;;;
2022/01/12 04:49:08;;;;;;;52.55;23.95;;;;;;;-1.95;97.02832;96832;;;;
2022/01/12 04:50:09;;;;;;;52.55;23.95;;;;;;;-1.95;97.02832;96832;;;;
2022/01/12 04:51:09;;;;;;;46.05;23.15;;;;;;;-1.92;96.84863;96834.87;;;;
2022/01/12 04:52:10;;;;;;;46.05;23.15;;;;;;;-1.92;96.84863;96834.87;;;;
2022/01/12 04:53:11;;;;;;;46.05;23.15;;;;;;;-1.92;96.84863;96834.87;;;;
2022/01/12 04:54:12;;;;;;;46.05;23.15;;;;;;;-1.92;96.84863;96834.87;;;;
2022/01/12 04:55:13;;;;;;;46.05;23.15;;;;;;;-1.92;96.84863;96834.87;;;;
2022/01/12 04:56:14;;;;;;;46.05;23.15;;;;;;;-1.92;96.84863;96834.87;;;;
2022/01/12 04:57:15;;;;;;;46.05;23.15;;;;;;;-1.92;96.84863;96834.87;;;;
2022/01/12 04:58:15;;;;;;;46.05;23.15;;;;;;;-1.92;96.84863;96834.87;;;;
2022/01/12 04:59:17;;;;;;;46.05;23.15;;;;;;;-1.92;96.84863;96834.87;;;;
2022/01/12 05:00:18;;;;;;;46.05;23.15;;;;;;;-1.92;96.84863;96834.87;;;;
2022/01/12 05:01:24;;;;;;;49.05001;22.8;;;;;;;-1.93;96.95996;96832.31;;;;
2022/01/12 05:07:45;;;;;;;49.05001;22.8;;;;;;;-1.93;96.95996;96832.31;;;;
2022/01/12 05:09:03;;;;;;;49.05001;22.8;;;;;;;-1.93;96.95996;96832.31;;;;
2022/01/12 05:15:25;;;;;;;46.49999;23.7;;;;;;;-1.83;97.11816;96842.5;;;;
2022/01/12 05:16:25;;;;;;;46.49999;23.7;;;;;;;-1.83;97.11816;96842.5;;;;
2022/01/12 05:17:28;;;;;;;46.49999;23.7;;;;;;;-1.83;97.11816;96842.5;;;;
2022/01/12 05:18:28;;;;;;;46.49999;23.7;;;;;;;-1.83;97.11816;96842.5;;;;
2022/01/12 05:19:30;;;;;;;46.49999;23.7;;;;;;;-1.83;97.11816;96842.5;;;;
2022/01/12 05:20:30;;;;;;;46.49999;23.7;;;;;;;-1.83;97.11816;96842.5;;;;
2022/01/12 05:21:31;;;;;;;46.49999;23.7;;;;;;;-1.83;97.11816;96842.5;;;;
2022/01/12 05:22:31;;;;;;;47.1;23.4;;;;;;;-1.73;97.12891;96856.28;;;;
2022/01/12 05:23:32;;;;;;;47.1;23.4;;;;;;;-1.73;97.12891;96856.28;;;;
2022/01/12 05:24:33;;;;;;;47.1;23.4;;;;;;;-1.73;97.12891;96856.28;;;;
2022/01/12 05:25:34;;;;;;;47.1;23.4;;;;;;;-1.73;97.12891;96856.28;;;;
2022/01/12 05:26:34;;;;;;;47.1;23.4;;;;;;;-1.73;97.12891;96856.28;;;;
2022/01/12 05:27:35;;;;;;;47.1;23.4;;;;;;;-1.73;97.12891;96856.28;;;;
2022/01/12 05:28:38;;;;;;;47.1;23.4;;;;;;;-1.73;97.12891;96856.28;;;;
2022/01/12 05:29:39;;;;;;;47.1;23.4;;;;;;;-1.73;97.12891;96856.28;;;;
2022/01/12 05:30:39;;;;;;;47.1;23.4;;;;;;;-1.73;97.12891;96856.28;;;;
2022/01/12 05:31:40;;;;;;;47.1;23.4;;;;;;;-1.73;97.12891;96856.28;;;;
2022/01/12 05:32:42;;;;;;;47.1;23.4;;;;;;;-1.73;97.12891;96856.28;;;;
2022/01/12 05:33:47;;;;;;;39.25;20.4;;;;;;;-1.67;97.06152;96865.88;;;;
2022/01/12 05:34:47;;;;;;;39.25;20.4;;;;;;;-1.67;97.06152;96865.88;;;;
2022/01/12 05:35:48;;;;;;;39.25;20.4;;;;;;;-1.67;97.06152;96865.88;;;;
2022/01/12 05:36:50;;;;;;;39.25;20.4;;;;;;;-1.67;97.06152;96865.88;;;;
2022/01/12 05:37:50;;;;;;;39.25;20.4;;;;;;;-1.67;97.06152;96865.88;;;;
2022/01/12 05:38:51;;;;;;;39.25;20.4;;;;;;;-1.67;97.06152;96865.88;;;;
2022/01/12 05:39:51;;;;;;;39.25;20.4;;;;;;;-1.67;97.06152;96865.88;;;;
2022/01/12 05:40:52;;;;;;;39.25;20.4;;;;;;;-1.67;97.06152;96865.88;;;;
2022/01/12 05:41:56;;;;;;;39.25;20.4;;;;;;;-1.67;97.06152;96865.88;;;;
2022/01/12 05:42:59;;;;;;;39.25;20.4;;;;;;;-1.67;97.06152;96865.88;;;;
2022/01/12 05:44:00;;;;;;;38.35;19.85;;;;;;;-1.66;96.99121;96884.37;;;;
2022/01/12 05:45:00;;;;;;;38.35;19.85;;;;;;;-1.66;96.99121;96884.37;;;;
2022/01/12 05:46:08;;;;;;;38.35;19.85;;;;;;;-1.66;96.99121;96884.37;;;;
2022/01/12 05:47:18;;;;;;;38.35;19.85;;;;;;;-1.66;96.99121;96884.37;;;;
2022/01/12 05:53:31;;;;;;;38.35;19.85;;;;;;;-1.66;96.99121;96884.37;;;;
2022/01/12 05:54:31;;;;;;;36.4;19.5;;;;;;;-1.72;96.98633;96884;;;;
2022/01/12 05:55:32;;;;;;;36.4;19.5;;;;;;;-1.72;96.98633;96884;;;;
2022/01/12 05:56:33;;;;;;;36.4;19.5;;;;;;;-1.72;96.98633;96884;;;;
2022/01/12 05:57:33;;;;;;;36.4;19.5;;;;;;;-1.72;96.98633;96884;;;;
2022/01/12 05:58:35;;;;;;;36.4;19.5;;;;;;;-1.72;96.98633;96884;;;;
2022/01/12 05:59:35;;;;;;;36.4;19.5;;;;;;;-1.72;96.98633;96884;;;;
2022/01/12 06:00:36;;;;;;;36.4;19.5;;;;;;;-1.72;96.98633;96884;;;;
2022/01/12 06:01:36;;;;;;;36.4;19.5;;;;;;;-1.72;96.98633;96884;;;;
2022/01/12 06:02:37;;;;;;;36.4;19.5;;;;;;;-1.72;96.98633;96884;;;;
2022/01/12 06:03:37;;;;;;;36.4;19.5;;;;;;;-1.72;96.98633;96884;;;;
2022/01/12 06:04:38;;;;;;;36.4;19.5;;;;;;;-1.72;96.98633;96884;;;;
2022/01/12 06:05:38;;;;;;;43.45;20.9;;;;;;;-1.69;97.21191;96900.48;;;;
2022/01/12 06:06:39;;;;;;;43.45;20.9;;;;;;;-1.69;97.21191;96900.48;;;;
2022/01/12 06:07:39;;;;;;;43.45;20.9;;;;;;;-1.69;97.21191;96900.48;;;;
2022/01/12 06:08:40;;;;;;;43.45;20.9;;;;;;;-1.69;97.21191;96900.48;;;;
2022/01/12 06:09:41;;;;;;;43.45;20.9;;;;;;;-1.69;97.21191;96900.48;;;;
2022/01/12 06:10:41;;;;;;;43.45;20.9;;;;;;;-1.69;97.21191;96900.48;;;;
2022/01/12 06:11:42;;;;;;;43.45;20.9;;;;;;;-1.69;97.21191;96900.48;;;;
2022/01/12 06:12:42;;;;;;;43.45;20.9;;;;;;;-1.69;97.21191;96900.48;;;;
2022/01/12 06:13:43;;;;;;;43.45;20.9;;;;;;;-1.69;97.21191;96900.48;;;;
2022/01/12 06:14:44;;;;;;;43.45;20.9;;;;;;;-1.69;97.21191;96900.48;;;;
2022/01/12 06:15:45;;;;;;;43.1;20.35;;;;;;;-1.66;97.1543;96895.86;;;;
2022/01/12 06:16:45;;;;;;;43.1;20.35;;;;;;;-1.66;97.1543;96895.86;;;;
2022/01/12 06:17:47;;;;;;;43.1;20.35;;;;;;;-1.66;97.1543;96895.86;;;;
2022/01/12 06:18:48;;;;;;;43.1;20.35;;;;;;;-1.66;97.1543;96895.86;;;;
2022/01/12 06:19:48;;;;;;;43.1;20.35;;;;;;;-1.66;97.1543;96895.86;;;;
2022/01/12 06:20:49;;;;;;;43.1;20.35;;;;;;;-1.66;97.1543;96895.86;;;;
2022/01/12 06:21:50;;;;;;;43.1;20.35;;;;;;;-1.66;97.1543;96895.86;;;;
2022/01/12 06:22:50;;;;;;;43.1;20.35;;;;;;;-1.66;97.1543;96895.86;;;;
2022/01/12 06:23:51;;;;;;;43.1;20.35;;;;;;;-1.66;97.1543;96895.86;;;;
2022/01/12 06:24:51;;;;;;;43.1;20.35;;;;;;;-1.66;97.1543;96895.86;;;;
2022/01/12 06:25:52;;;;;;;43.1;20.35;;;;;;;-1.66;97.1543;96895.86;;;;
2022/01/12 06:26:52;;;;;;;40.85;19.5;;;;;;;-1.66;97.37305;96906.87;;;;
2022/01/12 06:27:56;;;;;;;40.85;19.5;;;;;;;-1.66;97.37305;96906.87;;;;
2022/01/12 06:29:40;;;;;;;40.85;19.5;;;;;;;-1.66;97.37305;96906.87;;;;
2022/01/12 06:31:13;;;;;;;40.85;19.5;;;;;;;-1.66;97.37305;96906.87;;;;
2022/01/12 06:32:14;;;;;;;40.85;19.5;;;;;;;-1.66;97.37305;96906.87;;;;
2022/01/12 06:33:15;;;;;;;40.85;19.5;;;;;;;-1.66;97.37305;96906.87;;;;
2022/01/12 06:34:15;;;;;;;40.85;19.5;;;;;;;-1.66;97.37305;96906.87;;;;
2022/01/12 06:35:16;;;;;;;40.85;19.5;;;;;;;-1.66;97.37305;96906.87;;;;
2022/01/12 06:36:17;;;;;;;40.85;19.5;;;;;;;-1.66;97.37305;96906.87;;;;
2022/01/12 06:37:20;;;;;;;36.75;17.4;;;;;;;-1.67;97.38184;96936.52;;;;
2022/01/12 06:38:21;;;;;;;36.75;17.4;;;;;;;-1.67;97.38184;96936.52;;;;
2022/01/12 06:39:23;;;;;;;36.75;17.4;;;;;;;-1.67;97.38184;96936.52;;;;
2022/01/12 06:40:24;;;;;;;36.75;17.4;;;;;;;-1.67;97.38184;96936.52;;;;
2022/01/12 06:41:25;;;;;;;36.75;17.4;;;;;;;-1.67;97.38184;96936.52;;;;
2022/01/12 06:42:25;;;;;;;36.75;17.4;;;;;;;-1.67;97.38184;96936.52;;;;
2022/01/12 06:43:27;;;;;;;36.75;17.4;;;;;;;-1.67;97.38184;96936.52;;;;
2022/01/12 06:44:29;;;;;;;36.75;17.4;;;;;;;-1.67;97.38184;96936.52;;;;
2022/01/12 06:45:29;;;;;;;36.75;17.4;;;;;;;-1.67;97.38184;96936.52;;;;
2022/01/12 06:46:31;;;;;;;36.75;17.4;;;;;;;-1.67;97.38184;96936.52;;;;
2022/01/12 06:47:33;;;;;;;36.75;17.4;;;;;;;-1.67;97.38184;96936.52;;;;
2022/01/12 06:48:33;;;;;;;40.55;19.05;;;;;;;-1.72;97.30664;96945.31;;;;
2022/01/12 06:49:34;;;;;;;40.55;19.05;;;;;;;-1.72;97.30664;96945.31;;;;
2022/01/12 06:50:35;;;;;;;40.55;19.05;;;;;;;-1.72;97.30664;96945.31;;;;
2022/01/12 06:51:35;;;;;;;40.55;19.05;;;;;;;-1.72;97.30664;96945.31;;;;
2022/01/12 06:52:36;;;;;;;40.55;19.05;;;;;;;-1.72;97.30664;96945.31;;;;
2022/01/12 06:53:36;;;;;;;40.55;19.05;;;;;;;-1.72;97.30664;96945.31;;;;
2022/01/12 06:54:37;;;;;;;40.55;19.05;;;;;;;-1.72;97.30664;96945.31;;;;
2022/01/12 06:55:38;;;;;;;40.55;19.05;;;;;;;-1.72;97.30664;96945.31;;;;
2022/01/12 06:56:39;;;;;;;40.55;19.05;;;;;;;-1.72;97.30664;96945.31;;;;
2022/01/12 06:57:39;;;;;;;40.55;19.05;;;;;;;-1.72;97.30664;96945.31;;;;
2022/01/12 06:58:40;;;;;;;36.7;17.85;;;;;;;-1.77;97.39746;96985.44;;;;
2022/01/12 06:59:40;;;;;;;36.7;17.85;;;;;;;-1.77;97.39746;96985.44;;;;
2022/01/12 07:00:41;;;;;;;36.7;17.85;;;;;;;-1.77;97.39746;96985.44;;;;
2022/01/12 07:01:42;;;;;;;36.7;17.85;;;;;;;-1.77;97.39746;96985.44;;;;
2022/01/12 07:02:42;;;;;;;36.7;17.85;;;;;;;-1.77;97.39746;96985.44;;;;
2022/01/12 07:03:43;;;;;;;36.7;17.85;;;;;;;-1.77;97.39746;96985.44;;;;
2022/01/12 07:04:43;;;;;;;36.7;17.85;;;;;;;-1.77;97.39746;96985.44;;;;
2022/01/12 07:05:44;;;;;;;36.7;17.85;;;;;;;-1.77;97.39746;96985.44;;;;
2022/01/12 07:06:44;;;;;;;36.7;17.85;;;;;;;-1.77;97.39746;96985.44;;;;
2022/01/12 07:07:45;;;;;;;36.7;17.85;;;;;;;-1.77;97.39746;96985.44;;;;
2022/01/12 07:08:45;;;;;;;36.7;17.85;;;;;;;-1.77;97.39746;96985.44;;;;
2022/01/12 07:09:46;;;;;;;35.25;18.05;;;;;;;-1.82;97.35742;96977.87;;;;